createdAt,value
2022-11-08T00:00:07.780Z,8.85
2022-11-08T00:01:07.790Z,8.82
2022-11-08T00:02:07.918Z,8.87
2022-11-08T00:03:08.122Z,8.86
2022-11-08T00:04:07.707Z,8.85
2022-11-08T00:05:07.642Z,8.71
2022-11-08T00:06:07.630Z,8.82
2022-11-08T00:07:07.871Z,8.71
2022-11-08T00:08:07.590Z,8.83
2022-11-08T00:09:07.850Z,8.71
2022-11-08T00:10:07.833Z,8.77
2022-11-08T00:11:07.555Z,8.72
2022-11-08T00:12:07.541Z,8.76
2022-11-08T00:13:07.785Z,8.68
2022-11-08T00:14:07.810Z,8.68
2022-11-08T00:15:07.499Z,8.71
2022-11-08T00:16:07.751Z,8.72
2022-11-08T00:17:07.482Z,8.68
2022-11-08T00:18:07.728Z,8.76
2022-11-08T00:19:07.722Z,8.58
2022-11-08T00:20:07.481Z,8.62
2022-11-08T00:21:07.164Z,8.67
2022-11-08T00:22:07.659Z,8.64
2022-11-08T00:23:07.643Z,8.6
2022-11-08T00:24:07.381Z,8.67
2022-11-08T00:25:07.626Z,8.6
2022-11-08T00:26:07.354Z,8.62
2022-11-08T00:27:07.388Z,8.61
2022-11-08T00:28:07.580Z,8.62
2022-11-08T00:29:07.577Z,8.57
2022-11-08T00:30:07.551Z,8.52
2022-11-08T00:31:07.542Z,8.52
2022-11-08T00:32:07.274Z,8.5
2022-11-08T00:33:07.517Z,8.58
2022-11-08T00:34:07.507Z,8.57
2022-11-08T00:35:07.253Z,8.58
2022-11-08T00:36:07.552Z,8.5
2022-11-08T00:37:06.964Z,8.4
2022-11-08T00:38:07.233Z,8.49
2022-11-08T00:39:06.922Z,8.5
2022-11-08T00:40:06.904Z,8.39
2022-11-08T00:41:07.411Z,8.39
2022-11-08T00:42:07.139Z,8.46
2022-11-08T00:43:07.378Z,8.34
2022-11-08T00:44:06.887Z,8.31
2022-11-08T00:45:07.355Z,8.31
2022-11-08T00:46:07.085Z,8.25
2022-11-08T00:47:07.562Z,8.22
2022-11-08T00:48:07.056Z,8.25
2022-11-08T00:49:07.301Z,8.31
2022-11-08T00:50:07.105Z,8.28
2022-11-08T00:51:07.325Z,8.21
2022-11-08T00:52:07.307Z,8.19
2022-11-08T00:53:06.987Z,8.31
2022-11-08T00:54:07.023Z,8.19
2022-11-08T00:55:07.218Z,8.36
2022-11-08T00:56:06.704Z,8.22
2022-11-08T00:57:06.667Z,8.22
2022-11-08T00:58:06.912Z,8.17
2022-11-08T00:59:06.915Z,8.21
2022-11-08T01:00:06.635Z,8.21
2022-11-08T01:01:07.406Z,8.09
2022-11-08T01:02:07.486Z,8.07
2022-11-08T01:03:06.583Z,8.21
2022-11-08T01:04:06.827Z,8.22
2022-11-08T01:05:06.819Z,8.28
2022-11-08T01:06:07.063Z,8.34
2022-11-08T01:07:07.076Z,8.25
2022-11-08T01:08:06.820Z,8.44
2022-11-08T01:09:07.010Z,8.4
2022-11-08T01:10:07.191Z,8.32
2022-11-08T01:11:06.985Z,8.32
2022-11-08T01:12:06.708Z,8.22
2022-11-08T01:13:06.971Z,8.24
2022-11-08T01:14:06.691Z,8.22
2022-11-08T01:15:07.107Z,8.09
2022-11-08T01:16:06.911Z,8.09
2022-11-08T01:17:06.391Z,8.04
2022-11-08T01:18:06.890Z,8.04
2022-11-08T01:19:06.618Z,7.93
2022-11-08T01:20:06.855Z,7.99
2022-11-08T01:21:06.599Z,7.99
2022-11-08T01:22:06.578Z,8.03
2022-11-08T01:23:06.845Z,8.07
2022-11-08T01:24:06.604Z,8.03
2022-11-08T01:25:06.532Z,8.06
2022-11-08T01:26:06.781Z,7.96
2022-11-08T01:27:06.789Z,7.91
2022-11-08T01:28:06.485Z,8.06
2022-11-08T01:29:06.476Z,8.04
2022-11-08T01:30:06.500Z,8.09
2022-11-08T01:31:06.448Z,8.07
2022-11-08T01:32:06.182Z,8.04
2022-11-08T01:33:06.672Z,8.03
2022-11-08T01:35:06.399Z,8.09
2022-11-08T01:36:06.376Z,8.06
2022-11-08T01:37:06.112Z,8.16
2022-11-08T01:38:06.617Z,8.14
2022-11-08T01:39:06.509Z,8.21
2022-11-08T01:40:06.495Z,8.21
2022-11-08T01:41:06.312Z,8.34
2022-11-08T01:42:06.562Z,8.32
2022-11-08T01:43:06.543Z,8.17
2022-11-08T01:44:06.266Z,8.32
2022-11-08T01:45:06.288Z,8.22
2022-11-08T01:46:06.494Z,8.24
2022-11-08T01:47:05.969Z,8.39
2022-11-08T01:48:06.458Z,8.24
2022-11-08T01:49:06.456Z,8.32
2022-11-08T01:50:06.199Z,8.28
2022-11-08T01:51:06.173Z,8.22
2022-11-08T01:52:06.405Z,8.25
2022-11-08T01:53:06.395Z,8.29
2022-11-08T01:54:05.876Z,8.28
2022-11-08T01:55:06.392Z,8.22
2022-11-08T01:56:06.148Z,8.31
2022-11-08T01:57:06.344Z,8.31
2022-11-08T01:58:06.076Z,8.32
2022-11-08T01:59:05.803Z,8.28
2022-11-08T02:00:05.784Z,8.19
2022-11-08T02:01:06.019Z,8.14
2022-11-08T02:02:06.160Z,8.22
2022-11-08T02:03:06.003Z,8.11
2022-11-08T02:04:06.250Z,8.26
2022-11-08T02:05:06.222Z,8.22
2022-11-08T02:06:06.218Z,8.19
2022-11-08T02:07:06.202Z,8.22
2022-11-08T02:08:05.673Z,8.25
2022-11-08T02:09:06.164Z,8.16
2022-11-08T02:10:05.899Z,8.19
2022-11-08T02:11:06.274Z,8.09
2022-11-08T02:12:06.175Z,8.16
2022-11-08T02:13:15.738Z,8.13
2022-11-08T02:14:05.844Z,8.21
2022-11-08T02:15:05.571Z,8.19
2022-11-08T02:16:05.562Z,8.21
2022-11-08T02:17:05.796Z,8.21
2022-11-08T02:18:05.816Z,8.03
2022-11-08T02:19:05.777Z,8.13
2022-11-08T02:20:05.507Z,8.17
2022-11-08T02:21:05.761Z,8.22
2022-11-08T02:22:05.728Z,8.16
2022-11-08T02:23:05.967Z,8.22
2022-11-08T02:24:05.962Z,8.25
2022-11-08T02:25:05.681Z,8.22
2022-11-08T02:26:05.925Z,8.19
2022-11-08T02:27:06.029Z,8.24
2022-11-08T02:28:05.827Z,8.21
2022-11-08T02:29:05.885Z,8.1
2022-11-08T02:30:05.882Z,8.1
2022-11-08T02:31:05.864Z,8.14
2022-11-08T02:32:05.586Z,8.04
2022-11-08T02:33:05.570Z,8.06
2022-11-08T02:34:05.563Z,8.03
2022-11-08T02:35:05.810Z,7.98
2022-11-08T02:36:05.788Z,7.95
2022-11-08T02:37:05.768Z,8.01
2022-11-08T02:38:05.817Z,8.03
2022-11-08T02:39:05.498Z,7.91
2022-11-08T02:40:05.480Z,7.8
2022-11-08T02:41:05.717Z,7.77
2022-11-08T02:42:05.695Z,7.89
2022-11-08T02:43:05.458Z,7.77
2022-11-08T02:44:05.727Z,7.7
2022-11-08T02:45:05.656Z,7.8
2022-11-08T02:46:05.389Z,7.77
2022-11-08T02:47:05.375Z,7.83
2022-11-08T02:48:05.375Z,7.77
2022-11-08T02:49:05.594Z,7.74
2022-11-08T02:50:05.076Z,7.8
2022-11-08T02:51:05.317Z,7.91
2022-11-08T02:52:05.433Z,8.03
2022-11-08T02:53:05.291Z,8.06
2022-11-08T02:54:05.271Z,8.03
2022-11-08T02:55:05.516Z,8.07
2022-11-08T02:56:05.511Z,8.04
2022-11-08T02:57:05.228Z,8.11
2022-11-08T02:58:05.217Z,8.1
2022-11-08T02:59:05.228Z,8.13
2022-11-08T03:00:05.538Z,8.1
2022-11-08T03:01:05.686Z,8.16
2022-11-08T03:02:05.837Z,8.13
2022-11-08T03:03:05.150Z,8.16
2022-11-08T03:04:05.136Z,8.25
2022-11-08T03:05:04.870Z,8.03
2022-11-08T03:06:05.118Z,8.07
2022-11-08T03:07:05.348Z,8.11
2022-11-08T03:08:05.287Z,8.26
2022-11-08T03:09:05.090Z,8.21
2022-11-08T03:10:05.298Z,8.31
2022-11-08T03:11:05.037Z,8.21
2022-11-08T03:12:05.269Z,8.24
2022-11-08T03:13:05.268Z,8.29
2022-11-08T03:14:04.749Z,8.31
2022-11-08T03:15:04.998Z,8.28
2022-11-08T03:16:05.260Z,8.32
2022-11-08T03:17:04.951Z,8.19
2022-11-08T03:18:04.685Z,8.29
2022-11-08T03:19:04.918Z,8.26
2022-11-08T03:20:04.660Z,8.35
2022-11-08T03:21:04.906Z,8.36
2022-11-08T03:22:05.131Z,8.43
2022-11-08T03:23:05.160Z,8.5
2022-11-08T03:24:04.876Z,8.57
2022-11-08T03:25:05.106Z,8.53
2022-11-08T03:26:04.578Z,8.6
2022-11-08T03:27:04.807Z,8.49
2022-11-08T03:28:05.053Z,8.49
2022-11-08T03:29:04.784Z,8.52
2022-11-08T03:30:05.055Z,8.42
2022-11-08T03:31:04.773Z,8.42
2022-11-08T03:32:04.796Z,8.32
2022-11-08T03:49:20.028Z,7.74
2022-11-08T03:50:19.932Z,7.58
2022-11-08T03:51:19.929Z,7.52
2022-11-08T03:52:19.898Z,7.47
2022-11-08T03:53:19.883Z,7.37
2022-11-08T03:54:19.612Z,7.31
2022-11-08T03:55:19.860Z,7.19
2022-11-08T03:56:19.584Z,7.19
2022-11-08T03:57:19.306Z,7.16
2022-11-08T03:58:20.445Z,7.11
2022-11-08T03:59:19.535Z,7.01
2022-11-08T04:00:19.510Z,7.04
2022-11-08T04:01:19.996Z,6.83
2022-11-08T04:02:20.197Z,6.8
2022-11-08T04:03:19.499Z,6.79
2022-11-08T04:04:19.460Z,6.65
2022-11-08T04:05:19.764Z,6.7
2022-11-08T04:06:19.677Z,6.62
2022-11-08T04:07:19.413Z,6.58
2022-11-08T04:08:20.587Z,6.61
2022-11-08T04:09:25.622Z,6.6
2022-11-08T04:10:19.632Z,6.49
2022-11-08T04:11:19.089Z,6.6
2022-11-08T04:12:19.355Z,6.61
2022-11-08T04:13:19.571Z,6.58
2022-11-08T04:14:19.296Z,6.6
2022-11-08T04:15:19.408Z,6.6
2022-11-08T04:16:22.689Z,6.54
2022-11-08T04:17:19.512Z,6.57
2022-11-08T04:18:20.658Z,6.55
2022-11-08T04:19:19.484Z,6.57
2022-11-08T04:20:19.462Z,6.55
2022-11-08T04:21:19.606Z,6.47
2022-11-08T04:22:19.434Z,6.55
2022-11-08T04:23:19.167Z,6.55
2022-11-08T04:24:19.412Z,6.47
2022-11-08T04:25:19.140Z,6.54
2022-11-08T04:26:19.384Z,6.55
2022-11-08T04:27:19.363Z,6.61
2022-11-08T04:28:19.847Z,6.54
2022-11-08T04:29:19.072Z,6.6
2022-11-08T04:30:19.172Z,6.58
2022-11-08T04:31:19.061Z,6.58
2022-11-08T04:32:19.275Z,6.52
2022-11-08T04:33:19.264Z,6.49
2022-11-08T04:34:19.003Z,6.47
2022-11-08T04:35:19.241Z,6.54
2022-11-08T04:36:18.734Z,6.52
2022-11-08T04:37:19.279Z,6.54
2022-11-08T04:38:20.041Z,6.44
2022-11-08T04:39:18.925Z,6.44
2022-11-08T04:40:19.075Z,6.46
2022-11-08T04:41:18.960Z,6.43
2022-11-08T04:42:18.874Z,6.42
2022-11-08T04:43:18.869Z,6.4
2022-11-08T04:44:18.847Z,6.37
2022-11-08T04:45:19.089Z,6.37
2022-11-08T04:46:18.556Z,6.33
2022-11-08T04:47:18.804Z,6.36
2022-11-08T04:48:19.592Z,6.26
2022-11-08T04:49:18.772Z,6.39
2022-11-08T04:50:18.503Z,6.39
2022-11-08T04:51:18.492Z,6.47
2022-11-08T04:52:18.985Z,6.39
2022-11-08T04:53:19.044Z,6.42
2022-11-08T04:54:18.701Z,6.4
2022-11-08T04:55:18.940Z,6.46
2022-11-08T04:56:18.674Z,6.44
2022-11-08T04:57:18.904Z,6.54
2022-11-08T04:58:19.169Z,6.47
2022-11-08T04:59:18.361Z,6.51
2022-11-08T05:00:18.597Z,6.39
2022-11-08T05:01:19.153Z,6.39
2022-11-08T05:02:19.156Z,6.37
2022-11-08T05:03:18.550Z,6.37
2022-11-08T05:04:18.811Z,6.26
2022-11-08T05:05:18.623Z,6.33
2022-11-08T05:06:18.508Z,6.39
2022-11-08T05:07:18.754Z,6.34
2022-11-08T05:08:19.504Z,6.34
2022-11-08T05:09:18.811Z,6.28
2022-11-08T05:10:18.189Z,6.21
2022-11-08T05:11:18.435Z,6.26
2022-11-08T05:12:18.424Z,6.21
2022-11-08T05:13:18.145Z,6.4
2022-11-08T05:14:18.638Z,6.33
2022-11-08T05:15:18.624Z,6.34
2022-11-08T05:16:18.378Z,6.36
2022-11-08T05:17:18.339Z,6.25
2022-11-08T05:18:19.216Z,6.28
2022-11-08T05:19:18.559Z,6.39
2022-11-08T05:20:18.556Z,6.39
2022-11-08T05:21:18.026Z,6.44
2022-11-08T05:22:18.516Z,6.47
2022-11-08T05:23:18.257Z,6.47
2022-11-08T05:24:18.501Z,6.46
2022-11-08T05:25:18.555Z,6.47
2022-11-08T05:26:17.963Z,6.47
2022-11-08T05:27:18.179Z,6.42
2022-11-08T05:28:19.266Z,6.47
2022-11-08T05:29:18.178Z,6.43
2022-11-08T05:30:18.412Z,6.44
2022-11-08T05:31:18.372Z,6.47
2022-11-08T05:32:18.361Z,6.46
2022-11-08T05:33:18.359Z,6.46
2022-11-08T05:34:18.087Z,6.47
2022-11-08T05:35:18.324Z,6.57
2022-11-08T05:36:17.806Z,6.51
2022-11-08T05:37:18.295Z,6.55
2022-11-08T05:38:19.063Z,6.55
2022-11-08T05:39:18.011Z,6.57
2022-11-08T05:40:18.047Z,6.47
2022-11-08T05:41:18.320Z,6.57
2022-11-08T05:42:18.220Z,6.55
2022-11-08T05:43:19.209Z,6.61
2022-11-08T05:44:17.925Z,6.51
2022-11-08T05:45:18.160Z,6.57
2022-11-08T05:46:17.898Z,6.57
2022-11-08T05:47:17.885Z,6.57
2022-11-08T05:48:18.827Z,6.58
2022-11-08T05:49:17.994Z,6.54
2022-11-08T05:50:23.450Z,6.55
2022-11-08T05:51:17.855Z,6.6
2022-11-08T05:52:17.809Z,6.55
2022-11-08T05:53:18.613Z,6.54
2022-11-08T05:54:17.776Z,6.52
2022-11-08T05:55:17.756Z,6.57
2022-11-08T05:56:17.741Z,6.52
2022-11-08T05:57:23.635Z,6.52
2022-11-08T05:58:17.717Z,6.55
2022-11-08T05:59:17.954Z,6.54
2022-11-08T06:00:17.942Z,6.57
2022-11-08T06:01:17.938Z,6.57
2022-11-08T06:02:18.140Z,6.46
2022-11-08T06:03:24.092Z,6.49
2022-11-08T06:04:17.881Z,6.55
2022-11-08T06:05:17.718Z,6.55
2022-11-08T06:06:17.594Z,6.55
2022-11-08T06:07:17.578Z,6.57
2022-11-08T06:08:17.564Z,6.55
2022-11-08T06:09:17.808Z,6.64
2022-11-08T06:10:17.786Z,6.57
2022-11-08T06:11:17.514Z,6.58
2022-11-08T06:12:17.754Z,6.54
2022-11-08T06:13:17.815Z,6.61
2022-11-08T06:14:18.318Z,6.58
2022-11-08T06:15:17.457Z,6.61
2022-11-08T06:16:17.692Z,6.58
2022-11-08T06:17:17.680Z,6.57
2022-11-08T06:18:17.677Z,6.55
2022-11-08T06:19:17.400Z,6.54
2022-11-08T06:20:17.384Z,6.51
2022-11-08T06:21:17.373Z,6.52
2022-11-08T06:22:17.607Z,6.55
2022-11-08T06:23:17.921Z,6.57
2022-11-08T06:24:17.317Z,6.58
2022-11-08T06:25:17.300Z,6.61
2022-11-08T06:26:17.297Z,6.54
2022-11-08T06:27:17.527Z,6.64
2022-11-08T06:28:17.517Z,6.57
2022-11-08T06:29:17.571Z,6.61
2022-11-08T06:30:17.482Z,6.52
2022-11-08T06:31:17.215Z,6.51
2022-11-08T06:32:17.449Z,6.57
2022-11-08T06:33:18.011Z,6.57
2022-11-08T06:34:16.919Z,6.58
2022-11-08T06:35:16.894Z,6.62
2022-11-08T06:36:17.406Z,6.57
2022-11-08T06:37:17.121Z,6.58
2022-11-08T06:38:17.108Z,6.61
2022-11-08T06:39:17.349Z,6.7
2022-11-08T06:40:17.324Z,6.62
2022-11-08T06:41:16.803Z,6.65
2022-11-08T06:42:17.296Z,6.67
2022-11-08T06:43:24.711Z,6.67
2022-11-08T06:44:17.281Z,6.78
2022-11-08T06:45:17.475Z,6.67
2022-11-08T06:46:16.739Z,6.75
2022-11-08T06:47:16.977Z,6.68
2022-11-08T06:48:17.214Z,6.7
2022-11-08T06:49:17.259Z,6.72
2022-11-08T06:50:17.189Z,6.68
2022-11-08T06:51:16.902Z,6.76
2022-11-08T06:52:17.181Z,6.76
2022-11-08T06:53:17.484Z,6.79
2022-11-08T06:54:27.167Z,6.78
2022-11-08T06:55:17.101Z,6.86
2022-11-08T06:56:16.831Z,6.82
2022-11-08T06:57:16.818Z,6.97
2022-11-08T06:58:17.065Z,6.88
2022-11-08T06:59:17.049Z,7.05
2022-11-08T07:00:16.771Z,7.04
2022-11-08T07:01:17.324Z,7.12
2022-11-08T07:02:17.208Z,7.18
2022-11-08T07:03:17.009Z,7.19
2022-11-08T07:04:16.976Z,7.16
2022-11-08T07:05:16.446Z,7.22
2022-11-08T07:06:16.694Z,7.22
2022-11-08T07:07:16.933Z,7.21
2022-11-08T07:08:23.493Z,7.29
2022-11-08T07:09:16.639Z,7.34
2022-11-08T07:10:16.623Z,7.36
2022-11-08T07:11:16.925Z,7.44
2022-11-08T07:12:16.857Z,7.37
2022-11-08T07:13:17.440Z,7.54
2022-11-08T07:14:16.567Z,7.54
2022-11-08T07:15:16.814Z,7.52
2022-11-08T07:16:16.792Z,7.51
2022-11-08T07:17:16.848Z,7.67
2022-11-08T07:18:16.947Z,7.56
2022-11-08T07:19:16.746Z,7.61
2022-11-08T07:20:16.474Z,7.75
2022-11-08T07:21:16.455Z,7.82
2022-11-08T07:22:16.706Z,7.88
2022-11-08T07:23:16.685Z,7.8
2022-11-08T07:24:16.682Z,7.8
2022-11-08T07:25:16.404Z,7.91
2022-11-08T07:26:16.393Z,7.85
2022-11-08T07:27:16.123Z,7.78
2022-11-08T07:28:16.614Z,7.88
2022-11-08T07:29:20.476Z,7.82
2022-11-08T07:30:16.155Z,7.8
2022-11-08T07:31:16.316Z,7.83
2022-11-08T07:32:16.332Z,7.78
2022-11-08T07:33:17.031Z,7.77
2022-11-08T07:34:16.524Z,7.8
2022-11-08T07:35:16.513Z,7.78
2022-11-08T07:36:16.492Z,7.85
2022-11-08T07:37:16.224Z,7.82
2022-11-08T07:38:16.470Z,7.8
2022-11-08T07:39:16.457Z,7.85
2022-11-08T07:40:16.434Z,7.83
2022-11-08T07:41:16.182Z,7.78
2022-11-08T07:42:16.414Z,7.77
2022-11-08T07:43:28.392Z,7.8
2022-11-08T07:44:16.384Z,7.77
2022-11-08T07:45:16.372Z,7.77
2022-11-08T07:46:16.360Z,7.8
2022-11-08T07:47:16.078Z,7.88
2022-11-08T07:48:17.897Z,7.78
2022-11-08T07:49:16.421Z,7.85
2022-11-08T07:50:20.838Z,7.8
2022-11-08T07:51:16.023Z,7.77
2022-11-08T07:52:16.264Z,7.83
2022-11-08T07:53:16.341Z,7.85
2022-11-08T07:54:16.241Z,7.96
2022-11-08T07:55:16.225Z,7.96
2022-11-08T07:56:15.946Z,7.95
2022-11-08T07:57:15.682Z,7.91
2022-11-08T07:58:15.934Z,7.96
2022-11-08T07:59:16.166Z,7.95
2022-11-08T08:00:15.887Z,8.01
2022-11-08T08:01:16.135Z,7.98
2022-11-08T08:02:16.338Z,7.89
2022-11-08T08:03:16.215Z,7.99
2022-11-08T08:04:16.110Z,7.99
2022-11-08T08:05:16.134Z,8.03
2022-11-08T08:06:15.820Z,8.07
2022-11-08T08:07:15.796Z,8.07
2022-11-08T08:08:15.522Z,8.07
2022-11-08T08:09:16.017Z,8.1
2022-11-08T08:10:16.036Z,8.07
2022-11-08T08:11:15.749Z,8.09
2022-11-08T08:12:15.989Z,8.1
2022-11-08T08:13:15.977Z,8.13
2022-11-08T08:14:15.952Z,8.06
2022-11-08T08:15:15.952Z,8.16
2022-11-08T08:16:15.663Z,8.16
2022-11-08T08:17:15.398Z,8.22
2022-11-08T08:18:15.887Z,8.21
2022-11-08T08:19:15.642Z,8.26
2022-11-08T08:20:15.890Z,8.25
2022-11-08T08:21:16.007Z,8.19
2022-11-08T08:22:15.836Z,8.21
2022-11-08T08:23:16.040Z,8.31
2022-11-08T08:24:15.553Z,8.35
2022-11-08T08:25:15.804Z,8.4
2022-11-08T08:26:15.774Z,8.32
2022-11-08T08:27:15.504Z,8.43
2022-11-08T08:28:15.243Z,8.47
2022-11-08T08:29:15.231Z,8.62
2022-11-08T08:30:15.465Z,8.62
2022-11-08T08:31:15.717Z,8.67
2022-11-08T08:32:15.442Z,8.68
2022-11-08T08:33:45.152Z,8.74
2022-11-08T08:34:15.419Z,8.68
2022-11-08T08:35:15.654Z,8.72
2022-11-08T08:36:15.416Z,8.77
2022-11-08T08:37:15.666Z,8.87
2022-11-08T08:38:15.367Z,8.86
2022-11-08T08:39:15.595Z,8.83
2022-11-08T08:40:15.327Z,9
2022-11-08T08:41:15.311Z,8.95
2022-11-08T08:42:15.570Z,9.01
2022-11-08T08:43:15.503Z,9.09
2022-11-08T08:44:15.279Z,9.08
2022-11-08T08:45:19.747Z,9.05
2022-11-08T08:46:15.496Z,9.03
2022-11-08T08:47:14.986Z,9.14
2022-11-08T08:48:15.472Z,9.16
2022-11-08T08:49:15.464Z,9.21
2022-11-08T08:50:15.450Z,9.24
2022-11-08T08:51:15.480Z,9.29
2022-11-08T08:52:15.447Z,9.3
2022-11-08T08:53:15.879Z,9.26
2022-11-08T08:54:15.136Z,9.38
2022-11-08T08:55:15.390Z,9.47
2022-11-08T08:56:15.113Z,9.45
2022-11-08T08:57:15.096Z,9.5
2022-11-08T08:58:14.824Z,9.5
2022-11-08T09:01:54.357Z,9.63
2022-11-08T09:02:54.338Z,9.66
2022-11-08T09:03:54.321Z,9.66
2022-11-08T09:04:54.576Z,9.64
2022-11-08T09:05:54.560Z,9.77
2022-11-08T09:06:54.535Z,9.82
2022-11-08T09:07:54.545Z,9.82
2022-11-08T09:08:54.564Z,9.8
2022-11-08T09:09:53.988Z,9.88
2022-11-08T09:10:54.236Z,9.96
2022-11-08T09:11:53.985Z,9.93
2022-11-08T09:12:54.206Z,10.07
2022-11-08T09:13:54.203Z,10.02
2022-11-08T09:14:54.196Z,10.08
2022-11-08T09:15:54.179Z,10.17
2022-11-08T09:16:54.405Z,10.17
2022-11-08T09:17:54.143Z,10.25
2022-11-08T09:18:54.441Z,10.36
2022-11-08T09:20:00.425Z,10.39
2022-11-08T09:20:54.096Z,10.46
2022-11-08T09:21:54.309Z,10.57
2022-11-08T09:22:54.080Z,10.72
2022-11-08T09:23:54.342Z,10.67
2022-11-08T09:24:54.375Z,10.66
2022-11-08T09:25:54.045Z,10.73
2022-11-08T09:26:54.283Z,10.8
2022-11-08T09:27:54.030Z,10.84
2022-11-08T09:28:54.018Z,10.83
2022-11-08T09:29:54.246Z,11.05
2022-11-08T09:30:54.250Z,11.03
2022-11-08T09:31:53.957Z,11
2022-11-08T09:33:09.672Z,11.05
2022-11-08T09:33:54.029Z,11.1
2022-11-08T09:34:54.175Z,11.06
2022-11-08T09:35:53.657Z,11.18
2022-11-08T09:36:53.906Z,11.09
2022-11-08T09:37:54.746Z,11.15
2022-11-08T09:38:54.681Z,11.12
2022-11-08T09:39:54.359Z,11.12
2022-11-08T09:40:54.161Z,11.15
2022-11-08T09:41:58.091Z,11.2
2022-11-08T09:42:53.840Z,11.3
2022-11-08T09:43:54.076Z,11.28
2022-11-08T09:44:53.808Z,11.33
2022-11-08T09:45:53.547Z,11.41
2022-11-08T09:46:54.047Z,11.46
2022-11-08T09:47:57.727Z,11.46
2022-11-08T09:48:53.761Z,11.43
2022-11-08T09:49:53.746Z,11.46
2022-11-08T09:50:53.742Z,11.46
2022-11-08T09:51:53.988Z,11.56
2022-11-08T09:52:53.460Z,11.61
2022-11-08T09:53:53.717Z,11.57
2022-11-08T09:54:53.699Z,11.6
2022-11-08T09:55:53.715Z,11.57
2022-11-08T09:56:53.989Z,11.66
2022-11-08T09:57:53.664Z,11.66
2022-11-08T09:58:53.645Z,11.66
2022-11-08T09:59:53.636Z,11.75
2022-11-08T10:00:53.635Z,11.68
2022-11-08T10:01:54.131Z,11.64
2022-11-08T10:02:53.345Z,11.67
2022-11-08T10:03:53.855Z,11.78
2022-11-08T10:04:53.586Z,11.94
2022-11-08T10:05:53.564Z,11.95
2022-11-08T10:06:56.834Z,12.04
2022-11-08T10:07:53.544Z,12.08
2022-11-08T10:08:53.795Z,12.1
2022-11-08T10:09:53.578Z,12.19
2022-11-08T10:10:53.507Z,12.23
2022-11-08T10:11:53.776Z,12.33
2022-11-08T10:12:53.791Z,12.28
2022-11-08T10:13:53.467Z,12.37
2022-11-08T10:14:58.654Z,12.44
2022-11-08T10:15:53.471Z,12.44
2022-11-08T10:16:53.443Z,12.44
2022-11-08T10:17:53.434Z,12.44
2022-11-08T10:18:53.420Z,12.37
2022-11-08T10:19:53.662Z,12.4
2022-11-08T10:20:53.649Z,12.47
2022-11-08T10:21:53.636Z,12.53
2022-11-08T10:22:53.127Z,12.48
2022-11-08T10:23:53.372Z,12.61
2022-11-08T10:24:53.611Z,12.73
2022-11-08T10:25:53.350Z,12.76
2022-11-08T10:26:53.588Z,12.76
2022-11-08T10:27:53.620Z,12.88
2022-11-08T10:28:53.692Z,12.91
2022-11-08T10:29:53.551Z,12.91
2022-11-08T10:30:53.564Z,12.78
2022-11-08T10:31:53.049Z,12.89
2022-11-08T10:32:53.529Z,12.94
2022-11-08T10:33:53.539Z,12.88
2022-11-08T10:34:53.511Z,12.95
2022-11-08T10:35:56.479Z,12.95
2022-11-08T10:36:53.227Z,12.95
2022-11-08T10:37:53.214Z,12.96
2022-11-08T10:38:53.202Z,12.96
2022-11-08T10:39:53.198Z,13.06
2022-11-08T10:40:53.197Z,13.1
2022-11-08T10:41:53.463Z,13.07
2022-11-08T10:42:53.432Z,13.16
2022-11-08T10:43:53.445Z,13.17
2022-11-08T10:44:53.554Z,13.13
2022-11-08T10:45:53.395Z,13.2
2022-11-08T10:46:52.865Z,13.14
2022-11-08T10:47:52.850Z,13.16
2022-11-08T10:48:53.094Z,13.24
2022-11-08T10:49:53.119Z,13.24
2022-11-08T10:50:53.089Z,13.27
2022-11-08T10:51:53.335Z,13.24
2022-11-08T10:52:52.812Z,13.24
2022-11-08T10:53:52.872Z,13.25
2022-11-08T10:54:52.790Z,13.2
2022-11-08T10:55:53.290Z,13.21
2022-11-08T10:56:53.035Z,13.16
2022-11-08T10:57:53.007Z,13.16
2022-11-08T10:58:53.071Z,13.25
2022-11-08T10:59:53.262Z,13.14
2022-11-08T11:00:53.277Z,13.13
2022-11-08T11:01:52.905Z,13.13
2022-11-08T11:02:53.008Z,13.13
2022-11-08T11:03:53.215Z,13.07
2022-11-08T11:04:53.204Z,13.2
2022-11-08T11:05:52.937Z,13.28
2022-11-08T11:06:53.345Z,13.2
2022-11-08T11:07:55.088Z,13.21
2022-11-08T11:08:52.918Z,13.21
2022-11-08T11:09:52.879Z,13.39
2022-11-08T11:10:54.046Z,13.29
2022-11-08T11:11:53.771Z,13.29
2022-11-08T11:12:54.131Z,13.31
2022-11-08T11:13:54.003Z,13.29
2022-11-08T11:14:53.741Z,13.39
2022-11-08T11:15:54.033Z,13.29
2022-11-08T11:16:54.047Z,13.31
2022-11-08T11:17:53.466Z,13.27
2022-11-08T11:18:53.738Z,13.29
2022-11-08T11:19:53.451Z,13.35
2022-11-08T11:20:53.693Z,13.39
2022-11-08T11:21:53.925Z,13.37
2022-11-08T11:22:53.658Z,13.4
2022-11-08T11:23:53.646Z,13.44
2022-11-08T11:24:53.635Z,13.51
2022-11-08T11:25:53.878Z,13.55
2022-11-08T11:26:53.878Z,13.44
2022-11-08T11:27:53.364Z,13.48
2022-11-08T11:28:53.617Z,13.48
2022-11-08T11:29:53.347Z,13.54
2022-11-08T11:30:53.851Z,13.51
2022-11-08T11:31:53.595Z,13.62
2022-11-08T11:32:54.666Z,13.6
2022-11-08T11:33:54.186Z,13.62
2022-11-08T11:34:54.467Z,13.68
2022-11-08T11:35:54.437Z,13.58
2022-11-08T11:36:54.166Z,13.68
2022-11-08T11:37:54.158Z,13.72
2022-11-08T11:38:54.400Z,13.7
2022-11-08T11:39:54.152Z,13.7
2022-11-08T11:40:54.096Z,13.73
2022-11-08T11:41:54.104Z,13.62
2022-11-08T11:42:54.092Z,13.57
2022-11-08T11:43:54.381Z,13.68
2022-11-08T11:44:54.075Z,13.73
2022-11-08T11:45:54.065Z,13.72
2022-11-08T11:46:54.311Z,13.7
2022-11-08T11:47:53.834Z,13.68
2022-11-08T11:48:54.488Z,13.73
2022-11-08T11:49:54.300Z,13.78
2022-11-08T11:50:54.333Z,13.78
2022-11-08T11:51:53.845Z,13.79
2022-11-08T11:52:54.169Z,13.79
2022-11-08T11:53:54.000Z,13.81
2022-11-08T11:54:54.639Z,13.72
2022-11-08T11:55:54.378Z,13.75
2022-11-08T11:56:54.622Z,13.68
2022-11-08T11:57:54.102Z,13.65
2022-11-08T11:58:54.621Z,13.55
2022-11-08T11:59:54.601Z,13.53
2022-11-08T12:00:54.077Z,13.55
2022-11-08T12:01:54.807Z,13.5
2022-11-08T12:02:54.316Z,13.5
2022-11-08T12:03:54.327Z,13.42
2022-11-08T12:04:54.608Z,13.47
2022-11-08T12:05:54.057Z,13.47
2022-11-08T12:06:54.830Z,13.48
2022-11-08T12:07:54.260Z,13.45
2022-11-08T12:08:54.511Z,13.44
2022-11-08T12:09:54.494Z,13.48
2022-11-08T12:10:54.475Z,13.5
2022-11-08T12:11:54.493Z,13.53
2022-11-08T12:12:54.472Z,13.47
2022-11-08T12:13:59.151Z,13.44
2022-11-08T12:14:54.183Z,13.5
2022-11-08T12:15:54.190Z,13.47
2022-11-08T12:16:54.660Z,13.5
2022-11-08T12:17:54.173Z,13.53
2022-11-08T12:18:55.161Z,13.5
2022-11-08T12:19:54.165Z,13.53
2022-11-08T12:20:54.535Z,13.53
2022-11-08T12:21:54.371Z,13.55
2022-11-08T12:22:54.372Z,13.51
2022-11-08T12:23:53.870Z,13.54
2022-11-08T12:24:54.344Z,13.51
2022-11-08T12:25:54.331Z,13.55
2022-11-08T12:26:54.320Z,13.54
2022-11-08T12:27:54.058Z,13.65
2022-11-08T12:28:54.345Z,13.58
2022-11-08T12:29:54.097Z,13.57
2022-11-08T12:30:54.038Z,13.5
2022-11-08T12:31:54.271Z,13.54
2022-11-08T12:32:54.018Z,13.53
2022-11-08T12:34:00.755Z,13.62
2022-11-08T12:34:53.833Z,13.62
2022-11-08T12:35:54.017Z,13.53
2022-11-08T12:36:54.289Z,13.51
2022-11-08T12:37:54.240Z,13.55
2022-11-08T12:38:54.224Z,13.57
2022-11-08T12:39:53.971Z,13.6
2022-11-08T12:40:54.218Z,13.53
2022-11-08T12:41:54.199Z,13.51
2022-11-08T12:42:53.915Z,13.53
2022-11-08T12:43:54.149Z,13.55
2022-11-08T12:44:54.150Z,13.53
2022-11-08T12:45:53.882Z,13.48
2022-11-08T12:46:54.135Z,13.51
2022-11-08T12:47:54.124Z,13.47
2022-11-08T12:48:53.604Z,13.47
2022-11-08T12:49:53.873Z,13.53
2022-11-08T12:50:56.299Z,13.48
2022-11-08T12:51:53.623Z,13.5
2022-11-08T12:52:54.149Z,13.47
2022-11-08T12:53:54.067Z,13.48
2022-11-08T12:54:53.793Z,13.54
2022-11-08T12:55:53.786Z,13.51
2022-11-08T12:56:53.531Z,13.5
2022-11-08T12:57:54.002Z,13.45
2022-11-08T12:58:53.766Z,13.5
2022-11-08T12:59:53.748Z,13.44
2022-11-08T13:00:53.662Z,13.47
2022-11-08T13:01:53.741Z,13.47
2022-11-08T13:02:53.978Z,13.48
2022-11-08T13:03:54.261Z,13.47
2022-11-08T13:04:53.710Z,13.45
2022-11-08T13:05:53.684Z,13.5
2022-11-08T13:06:54.241Z,13.45
2022-11-08T13:07:53.703Z,13.45
2022-11-08T13:08:53.968Z,13.4
2022-11-08T13:09:53.404Z,13.51
2022-11-08T13:10:53.645Z,13.45
2022-11-08T13:11:53.639Z,13.5
2022-11-08T13:12:53.630Z,13.57
2022-11-08T13:13:53.879Z,13.42
2022-11-08T13:14:53.351Z,13.45
2022-11-08T13:15:53.844Z,13.37
2022-11-08T13:16:53.583Z,13.37
2022-11-08T13:17:53.832Z,13.29
2022-11-08T13:18:53.831Z,13.35
2022-11-08T13:19:53.640Z,13.28
2022-11-08T13:20:53.550Z,13.21
2022-11-08T13:21:53.528Z,13.32
2022-11-08T13:22:53.790Z,13.36
2022-11-08T13:23:53.568Z,13.31
2022-11-08T13:24:53.834Z,13.29
2022-11-08T13:25:53.751Z,13.32
2022-11-08T13:26:59.580Z,13.31
2022-11-08T13:27:53.221Z,13.27
2022-11-08T13:28:53.712Z,13.32
2022-11-08T13:29:53.459Z,13.39
2022-11-08T13:30:53.781Z,13.36
2022-11-08T13:31:53.451Z,13.36